Chino, CA (91710)

2:14 PM PDT on July 03, 2015 (GMT -0700)
North Central Chino | | Change Station
CLOSE
Current Station
Personal Weather Station
Location: Chino, CA
Elevation: 732 ft
Nearby Weather Stations

Elev 732 ft 34.01 °N, 117.67 °W | Updated 14 seconds ago

Scattered Clouds
Scattered Clouds
89.2 °F
Feels Like 90 °F
N
12.0
Wind Variable Wind from West
Gusts 14.0 mph

Today
High -- | Low -- °F
--% Chance of Precip.
Yesterday
High -- | Low -- °F
Precip. -- in
5:43 AM 8:05 PM
Waning Gibbous, 96% visible
Pressure 29.88 in
Visibility 10.0 miles
Clouds Scattered Clouds 20000 ft
Heat Index 90 °F
Dew Point 63 °F
Humidity 42%
Rainfall 0.00 in
Snow Depth Not available.
UV 8.4 out of 12
Pollen 3.60 out of 12
Air Quality Not available.
Flu Activity Not available.
METAR KCNO 032053Z 25010KT 10SM SCT200 33/13 A2989 RMK AO2 SLP116 T03330133 58022

More Conditions Fewer Conditions

Pressure 29.88 in
Visibility 10.0 miles
Clouds Scattered Clouds 20000 ft
Heat Index 90 °F
Dew Point 63 °F
Humidity 42%
Rainfall 0.00 in
Snow Depth Not available.
UV 8.4 out of 12
Pollen 3.60 out of 12
Air Quality Not available.
Flu Activity Not available.
METAR KCNO 032053Z 25010KT 10SM SCT200 33/13 A2989 RMK AO2 SLP116 T03330133 58022

More Conditions Fewer Conditions

10-Day Weather Forecast

×

Almanac

Astronomy

Jul. 03, 2015 Rise Set
Actual Time
Civil Twilight
Nautical Twilight
Astronomical Twilight
Moon
Length of Visible Light
Length of Day
Tomorrow will be .
, % of the Moon is Illuminated

Today's Extremes

State Highs State Lows

Community

WunderPhotos

Upload Photos

1,834,777 photos uploaded!

WunderBlogs® & News

Nearby

Air Quality

  Air Quality AQ Index Pollutant
Not available.

Snow Depth

Station Depth Elevation

Earthquake Activity

City Distance Mag. Time & Date
Minimum magnitude displayed is 2.5.

Coastal Water Temperatures

Place Temperature

Stations

Nearby Weather Stations

Station Location Temp. Windchill Dew Point Humidity Wind Precip. Elev Updated Type